Fairview Heights, Illinois
Current Conditions -  °F | °C
As of 11:53 AM on Tuesday 27 Jan 2015 (Local Time) from KCPS Reporting Station
Overcast Overcast  
Wind Chill: 38°   Ceiling: 2600
Heat Index: 43°   Visibility: 10mi
Dew Point: 33°   Wind: 8mph
Humidity: 68%   Direction: 340°NNW
Pressure: 30.16"   Gusts: NA
Location:  38.6°N, 90.01°W
Report Text: KCPS 271753Z 34007KT 10SM OVC026 06/01 A3016 RMK AO2 SLP216 T00610006 10067 20017 50014
Loading
Personal Weather Stations






























Interactive Weather Map New forecast layout! Learn more

10-Day Weather Forecast

Advertisements
Track Severe Weather on mobile